Time;durP1;ratioP1;P1;durP2;ratioP2;P2;SDS_P1;SDS_P2;PMS_P1;PMS_P2;Temp;Humidity;BMP_temperature;BMP_pressure;BME280_temperature;BME280_humidity;BME280_pressure;Samples;Min_cycle;Max_cycle;Signal;HPM_P1;HPM_P2
2021/03/05 00:01:23;;;;;;;10.50;2.83;;;;;;;;;;5087142;28;20028;-84
2021/03/05 00:03:49;;;;;;;12.73;3.47;;;;;;;;;;5086893;28;20197;-84
2021/03/05 00:06:15;;;;;;;12.40;3.63;;;;;;;;;;5101402;28;20034;-83
2021/03/05 00:08:41;;;;;;;13.20;4.18;;;;;;;;;;5111761;28;20032;-83
2021/03/05 00:11:07;;;;;;;15.00;3.78;;;;;;;;;;5111384;28;20085;-85
2021/03/05 00:13:33;;;;;;;15.05;3.42;;;;;;;;;;5103766;28;20336;-83
2021/03/05 00:15:59;;;;;;;14.52;3.83;;;;;;;;;;5090678;28;20027;-84
2021/03/05 00:18:26;;;;;;;11.75;3.65;;;;;;;;;;5093352;28;20036;-86
2021/03/05 00:20:52;;;;;;;22.77;4.22;;;;;;;;;;5084608;28;20181;-85
2021/03/05 00:23:19;;;;;;;17.13;3.33;;;;;;;;;;5101927;28;20026;-85
2021/03/05 00:25:49;;;;;;;17.80;3.60;;;;;;;;;;5083553;28;20059;-84
2021/03/05 00:28:15;;;;;;;16.17;4.00;;;;;;;;;;5101847;28;20092;-86
2021/03/05 00:30:44;;;;;;;15.07;3.75;;;;;;;;;;5094540;28;20126;-84
2021/03/05 00:33:10;;;;;;;12.75;3.63;;;;;;;;;;5119647;28;20031;-85
2021/03/05 00:35:37;;;;;;;13.75;4.05;;;;;;;;;;5119609;28;20054;-87
2021/03/05 00:38:03;;;;;;;14.32;4.53;;;;;;;;;;5119212;28;20065;-86
2021/03/05 00:40:29;;;;;;;16.95;3.70;;;;;;;;;;5112793;28;20051;-84
2021/03/05 00:42:56;;;;;;;15.90;3.88;;;;;;;;;;5098964;28;20074;-88
2021/03/05 00:45:22;;;;;;;6.53;3.63;;;;;;;;;;5080904;28;20027;-84
2021/03/05 00:47:52;;;;;;;14.45;3.80;;;;;;;;;;5081123;28;20028;-84
2021/03/05 00:50:18;;;;;;;;;;;;;;;;;;5117862;28;20075;-87
2021/03/05 00:52:44;;;;;;;16.35;4.40;;;;;;;;;;5101316;28;19954;-85
2021/03/05 00:55:11;;;;;;;13.75;3.58;;;;;;;;;;5118449;28;20019;-84
2021/03/05 00:57:37;;;;;;;15.30;4.47;;;;;;;;;;5118054;28;20031;-85
2021/03/05 01:00:05;;;;;;;15.38;4.75;;;;;;;;;;5101729;28;20030;-86
2021/03/05 01:02:31;;;;;;;17.65;5.00;;;;;;;;;;5101149;28;20027;-85
2021/03/05 01:04:57;;;;;;;14.82;5.47;;;;;;;;;;5118406;28;20027;-85
2021/03/05 01:07:23;;;;;;;14.30;4.30;;;;;;;;;;5101187;28;20346;-84
2021/03/05 01:09:53;;;;;;;14.15;4.50;;;;;;;;;;5099849;28;20078;-85
2021/03/05 01:12:23;;;;;;;14.05;5.18;;;;;;;;;;5071944;28;20032;-86
2021/03/05 01:14:53;;;;;;;13.68;4.18;;;;;;;;;;5105598;28;20122;-84
2021/03/05 01:17:19;;;;;;;13.10;5.22;;;;;;;;;;5080573;28;20028;-85
2021/03/05 01:19:46;;;;;;;15.82;4.93;;;;;;;;;;5099095;28;20087;-87
2021/03/05 01:22:12;;;;;;;14.88;4.50;;;;;;;;;;5118507;28;20023;-85
2021/03/05 01:24:38;;;;;;;13.93;4.85;;;;;;;;;;5100152;28;20031;-82
2021/03/05 01:27:04;;;;;;;11.02;5.68;;;;;;;;;;5117945;28;20343;-86
2021/03/05 01:29:31;;;;;;;14.38;6.07;;;;;;;;;;5100634;28;20380;-87
2021/03/05 01:31:57;;;;;;;15.65;5.47;;;;;;;;;;5117026;28;20035;-86
2021/03/05 01:34:23;;;;;;;15.35;7.05;;;;;;;;;;5100378;28;20028;-86
2021/03/05 01:36:49;;;;;;;12.82;6.00;;;;;;;;;;5100771;28;20031;-87
2021/03/05 01:39:16;;;;;;;12.20;6.25;;;;;;;;;;5100483;28;20032;-86
2021/03/05 01:41:42;;;;;;;11.40;6.55;;;;;;;;;;5099590;28;20034;-87
2021/03/05 01:44:09;;;;;;;11.88;6.65;;;;;;;;;;5117942;28;20078;-86
2021/03/05 01:46:35;;;;;;;11.98;6.47;;;;;;;;;;5118014;28;20027;-89
2021/03/05 01:49:02;;;;;;;14.75;7.20;;;;;;;;;;5100706;28;20028;-85
2021/03/05 01:51:29;;;;;;;14.15;7.75;;;;;;;;;;5118404;28;20130;-86
2021/03/05 01:53:56;;;;;;;13.82;8.13;;;;;;;;;;5099753;28;20032;-85
2021/03/05 01:56:35;;;;;;;11.38;8.00;;;;;;;;;;5099666;28;20033;-89
2021/03/05 01:59:01;;;;;;;11.50;6.60;;;;;;;;;;5108326;28;20351;-89
2021/03/05 02:01:29;;;;;;;11.75;8.25;;;;;;;;;;5097459;28;20111;-87
2021/03/05 02:03:55;;;;;;;13.85;7.68;;;;;;;;;;5097889;28;20055;-87
2021/03/05 02:06:21;;;;;;;10.57;7.80;;;;;;;;;;5080115;28;20028;-86
2021/03/05 02:08:48;;;;;;;15.13;9.20;;;;;;;;;;5097834;28;20028;-86
2021/03/05 02:11:19;;;;;;;10.55;7.38;;;;;;;;;;5106512;28;20063;-83
2021/03/05 02:13:45;;;;;;;12.70;8.68;;;;;;;;;;5103220;28;20034;-86
2021/03/05 02:16:19;;;;;;;10.68;8.50;;;;;;;;;;5098108;28;20027;-85
2021/03/05 02:18:50;;;;;;;11.07;8.13;;;;;;;;;;5078332;28;20351;-85
2021/03/05 02:21:35;;;;;;;11.38;8.48;;;;;;;;;;5097478;28;20024;-88
2021/03/05 02:24:21;;;;;;;11.05;8.20;;;;;;;;;;5097338;28;20030;-85
2021/03/05 02:27:06;;;;;;;12.27;8.05;;;;;;;;;;5086859;28;20039;-86
2021/03/05 02:29:32;;;;;;;12.60;9.07;;;;;;;;;;5100024;28;20134;-87
2021/03/05 02:32:04;;;;;;;11.90;9.43;;;;;;;;;;5099556;28;20081;-86
2021/03/05 02:34:41;;;;;;;9.93;8.38;;;;;;;;;;5118147;28;20063;-87
2021/03/05 02:37:11;;;;;;;11.02;8.95;;;;;;;;;;5099301;28;20027;-86
2021/03/05 02:39:37;;;;;;;10.40;8.90;;;;;;;;;;5100255;28;20429;-86
2021/03/05 02:42:05;;;;;;;10.65;8.50;;;;;;;;;;5079589;28;20043;-84
2021/03/05 02:44:33;;;;;;;11.45;9.38;;;;;;;;;;5079547;28;20347;-85
2021/03/05 02:47:04;;;;;;;13.68;8.60;;;;;;;;;;5098980;28;20073;-86
2021/03/05 02:49:33;;;;;;;11.07;8.93;;;;;;;;;;5117797;28;20312;-85
2021/03/05 02:52:02;;;;;;;10.77;8.57;;;;;;;;;;5098814;28;20032;-85
2021/03/05 02:54:29;;;;;;;12.88;8.95;;;;;;;;;;5082636;28;20321;-86
2021/03/05 02:56:58;;;;;;;13.75;8.00;;;;;;;;;;5084077;28;20035;-86
2021/03/05 02:59:24;;;;;;;11.00;8.00;;;;;;;;;;5077614;28;20036;-83
2021/03/05 03:01:51;;;;;;;11.57;8.88;;;;;;;;;;5092079;28;20024;-86
2021/03/05 03:04:17;;;;;;;11.90;8.50;;;;;;;;;;5090539;28;20038;-87
2021/03/05 03:06:44;;;;;;;12.77;7.70;;;;;;;;;;5079761;28;20126;-87
2021/03/05 03:09:12;;;;;;;12.15;7.90;;;;;;;;;;5079300;28;20039;-88
2021/03/05 03:11:40;;;;;;;10.32;7.97;;;;;;;;;;5078918;28;20130;-85
2021/03/05 03:14:06;;;;;;;8.57;7.43;;;;;;;;;;5078830;28;20036;-85
2021/03/05 03:16:32;;;;;;;9.30;8.32;;;;;;;;;;5096940;28;20355;-86
2021/03/05 03:18:58;;;;;;;9.35;7.82;;;;;;;;;;5099061;28;20031;-86
2021/03/05 03:21:26;;;;;;;9.48;7.63;;;;;;;;;;5099021;28;20031;-86
2021/03/05 03:23:52;;;;;;;7.82;6.78;;;;;;;;;;5114486;28;20030;-85
2021/03/05 03:26:18;;;;;;;8.25;7.15;;;;;;;;;;5096289;28;20024;-85
2021/03/05 03:28:44;;;;;;;8.57;6.13;;;;;;;;;;5090416;28;20035;-84
2021/03/05 03:31:14;;;;;;;6.90;6.20;;;;;;;;;;5116854;28;20079;-86
2021/03/05 03:33:41;;;;;;;6.75;5.88;;;;;;;;;;5110751;28;20027;-85
2021/03/05 03:36:07;;;;;;;7.63;6.45;;;;;;;;;;5078108;28;20393;-87
2021/03/05 03:38:34;;;;;;;10.13;6.85;;;;;;;;;;5078511;28;20335;-86
2021/03/05 03:41:01;;;;;;;6.38;5.78;;;;;;;;;;5078015;28;20077;-84
2021/03/05 03:43:29;;;;;;;9.25;6.82;;;;;;;;;;5095436;28;20035;-87
2021/03/05 03:45:56;;;;;;;7.88;5.47;;;;;;;;;;5077628;28;20070;-86
2021/03/05 03:48:22;;;;;;;6.47;5.40;;;;;;;;;;5084289;28;20031;-86
2021/03/05 03:50:54;;;;;;;7.65;5.22;;;;;;;;;;5087811;28;20351;-86
2021/03/05 03:53:24;;;;;;;5.40;4.90;;;;;;;;;;5089520;28;20027;-85
2021/03/05 03:55:51;;;;;;;6.13;4.93;;;;;;;;;;5115290;28;20027;-85
2021/03/05 03:58:17;;;;;;;5.85;5.18;;;;;;;;;;5097498;28;20024;-84
2021/03/05 04:00:45;;;;;;;5.63;4.22;;;;;;;;;;5097536;28;20201;-86
2021/03/05 04:03:11;;;;;;;6.35;4.50;;;;;;;;;;5097416;28;20388;-86
2021/03/05 04:05:38;;;;;;;4.55;3.95;;;;;;;;;;5089949;28;20447;-85
2021/03/05 04:08:05;;;;;;;5.03;4.32;;;;;;;;;;5093813;28;20122;-87
2021/03/05 04:10:32;;;;;;;5.10;4.10;;;;;;;;;;5095349;28;20028;-85
2021/03/05 04:12:58;;;;;;;6.22;4.18;;;;;;;;;;5095900;28;20111;-87
2021/03/05 04:15:25;;;;;;;5.32;3.83;;;;;;;;;;5095339;28;20062;-85
2021/03/05 04:17:51;;;;;;;6.03;3.35;;;;;;;;;;5096557;28;20028;-85
2021/03/05 04:20:19;;;;;;;4.00;3.17;;;;;;;;;;5097638;28;20024;-86
2021/03/05 04:22:46;;;;;;;4.60;3.17;;;;;;;;;;5083564;28;20039;-85
2021/03/05 04:25:14;;;;;;;5.05;3.28;;;;;;;;;;5076930;28;20070;-84
2021/03/05 04:27:40;;;;;;;5.28;2.92;;;;;;;;;;5077345;28;20032;-89
2021/03/05 04:30:07;;;;;;;3.88;2.97;;;;;;;;;;5077589;28;20031;-86
2021/03/05 04:32:33;;;;;;;2.95;2.65;;;;;;;;;;5078937;28;20024;-86
2021/03/05 04:34:59;;;;;;;4.35;2.63;;;;;;;;;;5080837;28;20024;-85
2021/03/05 04:37:25;;;;;;;4.35;3.13;;;;;;;;;;5080131;28;20340;-87
2021/03/05 04:39:57;;;;;;;4.25;2.95;;;;;;;;;;5098436;28;20123;-87
2021/03/05 04:42:23;;;;;;;6.72;2.65;;;;;;;;;;5083969;28;20074;-87
2021/03/05 04:44:50;;;;;;;3.10;2.78;;;;;;;;;;5089279;28;20260;-86
2021/03/05 04:47:16;;;;;;;2.80;2.55;;;;;;;;;;5085140;28;20059;-86
2021/03/05 04:49:42;;;;;;;4.00;2.70;;;;;;;;;;5093041;28;20024;-87
2021/03/05 04:52:08;;;;;;;3.30;2.92;;;;;;;;;;5095476;28;20062;-84
2021/03/05 04:54:35;;;;;;;4.47;2.50;;;;;;;;;;5085020;28;20027;-87
2021/03/05 04:57:01;;;;;;;4.22;2.55;;;;;;;;;;5093094;28;20024;-86
2021/03/05 04:59:27;;;;;;;6.20;3.00;;;;;;;;;;5081176;28;20054;-86
2021/03/05 05:01:53;;;;;;;5.47;2.97;;;;;;;;;;5114866;28;20411;-87
2021/03/05 05:04:20;;;;;;;4.10;2.42;;;;;;;;;;5101973;28;20063;-87
2021/03/05 05:06:46;;;;;;;3.65;2.55;;;;;;;;;;5087364;28;20031;-85
2021/03/05 05:09:12;;;;;;;7.25;2.63;;;;;;;;;;5098693;28;20051;-88
2021/03/05 05:11:38;;;;;;;3.13;2.35;;;;;;;;;;5082053;28;20071;-85
2021/03/05 05:14:04;;;;;;;3.75;2.00;;;;;;;;;;5086582;28;20024;-84
2021/03/05 05:16:33;;;;;;;4.47;2.03;;;;;;;;;;5109710;28;20031;-87
2021/03/05 05:18:59;;;;;;;3.95;2.35;;;;;;;;;;5084564;28;20099;-86
2021/03/05 05:21:25;;;;;;;3.75;2.33;;;;;;;;;;5097979;28;20039;-87
2021/03/05 05:23:51;;;;;;;3.17;1.70;;;;;;;;;;5087465;28;20034;-87
2021/03/05 05:26:18;;;;;;;5.05;1.92;;;;;;;;;;5093119;28;20039;-88
2021/03/05 05:28:44;;;;;;;5.05;1.85;;;;;;;;;;5090420;28;20400;-88
2021/03/05 05:31:10;;;;;;;3.05;2.25;;;;;;;;;;5109061;28;20038;-85
2021/03/05 05:33:39;;;;;;;3.40;1.63;;;;;;;;;;5113350;28;20112;-88
2021/03/05 05:36:05;;;;;;;3.53;2.15;;;;;;;;;;5119541;28;20063;-86
2021/03/05 05:38:31;;;;;;;4.25;1.83;;;;;;;;;;5103540;28;20024;-84
2021/03/05 05:41:01;;;;;;;3.35;1.80;;;;;;;;;;5095569;28;20038;-87
2021/03/05 05:43:30;;;;;;;3.28;1.50;;;;;;;;;;5091206;28;20043;-85
2021/03/05 05:46:01;;;;;;;2.88;1.25;;;;;;;;;;5079333;28;20024;-89
2021/03/05 05:48:27;;;;;;;5.78;2.63;;;;;;;;;;5097605;28;20038;-86
2021/03/05 05:50:53;;;;;;;5.25;1.83;;;;;;;;;;5105462;28;20082;-88
2021/03/05 05:53:20;;;;;;;2.40;1.55;;;;;;;;;;5080697;28;20035;-86
2021/03/05 05:55:46;;;;;;;7.13;2.05;;;;;;;;;;5077964;28;20024;-85
2021/03/05 05:58:13;;;;;;;1.60;1.30;;;;;;;;;;5078850;28;20110;-88
2021/03/05 06:00:39;;;;;;;5.95;1.50;;;;;;;;;;5076612;28;20028;-86
2021/03/05 06:03:08;;;;;;;2.25;1.60;;;;;;;;;;5084802;28;20083;-85
2021/03/05 06:05:34;;;;;;;4.03;2.33;;;;;;;;;;5105352;28;20042;-84
2021/03/05 06:08:00;;;;;;;3.78;1.50;;;;;;;;;;5089217;28;20020;-85
2021/03/05 06:10:26;;;;;;;3.72;1.50;;;;;;;;;;5089349;28;20032;-86
2021/03/05 06:12:53;;;;;;;5.32;1.80;;;;;;;;;;5089563;28;20024;-87
2021/03/05 06:15:20;;;;;;;1.92;1.40;;;;;;;;;;5114864;28;20032;-87
2021/03/05 06:17:47;;;;;;;2.22;1.48;;;;;;;;;;5084305;28;20051;-88
2021/03/05 06:20:14;;;;;;;2.15;1.30;;;;;;;;;;5081128;28;20034;-86
2021/03/05 06:22:41;;;;;;;2.80;1.67;;;;;;;;;;5105549;28;20031;-88
2021/03/05 06:25:08;;;;;;;3.05;1.48;;;;;;;;;;5085286;28;20435;-86
2021/03/05 06:27:34;;;;;;;2.92;1.50;;;;;;;;;;5084675;28;20032;-87
2021/03/05 06:30:00;;;;;;;4.55;1.67;;;;;;;;;;5087155;28;20028;-88
2021/03/05 06:32:38;;;;;;;4.40;1.42;;;;;;;;;;5092756;28;20044;-84
2021/03/05 06:35:05;;;;;;;3.17;1.33;;;;;;;;;;5089197;28;20088;-84
2021/03/05 06:38:00;;;;;;;4.15;2.05;;;;;;;;;;5084002;28;20350;-86
2021/03/05 06:40:26;;;;;;;3.72;1.60;;;;;;;;;;5057099;28;20040;-86
2021/03/05 06:42:54;;;;;;;3.08;1.38;;;;;;;;;;5099824;28;20067;-87
2021/03/05 06:45:21;;;;;;;2.67;1.30;;;;;;;;;;5109124;28;20059;-88
2021/03/05 06:48:07;;;;;;;3.80;1.40;;;;;;;;;;5084973;28;20048;-86
2021/03/05 06:50:43;;;;;;;3.53;1.42;;;;;;;;;;5096240;28;20032;-85
2021/03/05 06:53:28;;;;;;;6.68;1.33;;;;;;;;;;5076552;28;20028;-85
2021/03/05 06:55:55;;;;;;;3.63;1.23;;;;;;;;;;5085383;28;20076;-87
2021/03/05 06:58:21;;;;;;;6.35;1.30;;;;;;;;;;5095063;28;20028;-88
2021/03/05 07:00:47;;;;;;;8.35;1.92;;;;;;;;;;5105857;28;20262;-89
2021/03/05 07:03:23;;;;;;;2.97;1.17;;;;;;;;;;5099892;28;20023;-86
2021/03/05 07:05:53;;;;;;;4.07;1.50;;;;;;;;;;5096940;28;20028;-89
2021/03/05 07:08:41;;;;;;;2.92;1.20;;;;;;;;;;5092698;28;20024;-87
2021/03/05 07:11:14;;;;;;;6.32;1.67;;;;;;;;;;5077304;28;20055;-89
2021/03/05 07:13:53;;;;;;;4.22;1.40;;;;;;;;;;5092290;28;20035;-87
2021/03/05 07:16:19;;;;;;;4.22;1.40;;;;;;;;;;5091657;28;20024;-86
2021/03/05 07:18:45;;;;;;;3.35;1.27;;;;;;;;;;5095739;28;20036;-87
2021/03/05 07:21:16;;;;;;;0.90;0.90;;;;;;;;;;5102222;28;20419;-86
2021/03/05 07:23:44;;;;;;;2.47;1.20;;;;;;;;;;5096615;28;20331;-86
2021/03/05 07:26:10;;;;;;;4.43;1.30;;;;;;;;;;5101093;28;20096;-87
2021/03/05 07:28:36;;;;;;;3.08;1.10;;;;;;;;;;5081847;28;20075;-87
2021/03/05 07:31:05;;;;;;;5.47;1.73;;;;;;;;;;5073296;28;20036;-86
2021/03/05 07:33:31;;;;;;;;;;;;;;;;;;5100498;28;20032;-85
2021/03/05 07:35:59;;;;;;;3.97;1.40;;;;;;;;;;5079228;28;19924;-85
2021/03/05 07:38:29;;;;;;;2.15;1.00;;;;;;;;;;5079986;28;20024;-88
2021/03/05 07:40:58;;;;;;;3.35;1.30;;;;;;;;;;5095201;28;20108;-87
2021/03/05 07:43:25;;;;;;;1.97;1.10;;;;;;;;;;5075987;28;20024;-88
2021/03/05 07:45:52;;;;;;;3.60;2.13;;;;;;;;;;5098273;28;20028;-86
2021/03/05 07:48:18;;;;;;;2.53;1.38;;;;;;;;;;5085738;28;20020;-90
2021/03/05 07:50:45;;;;;;;4.15;1.50;;;;;;;;;;5095429;28;20042;-89
2021/03/05 07:53:11;;;;;;;2.97;1.20;;;;;;;;;;5084213;28;20114;-87
2021/03/05 07:55:38;;;;;;;3.10;1.10;;;;;;;;;;5088804;28;20028;-88
2021/03/05 07:58:05;;;;;;;4.75;2.22;;;;;;;;;;5084111;28;20024;-87
2021/03/05 08:00:49;;;;;;;8.27;1.55;;;;;;;;;;5092835;28;20055;-86
2021/03/05 08:03:17;;;;;;;3.92;1.50;;;;;;;;;;5081639;28;20539;-86
2021/03/05 08:05:46;;;;;;;2.60;1.15;;;;;;;;;;5101041;28;20111;-86
2021/03/05 08:08:22;;;;;;;3.83;1.38;;;;;;;;;;5097926;28;20072;-88
2021/03/05 08:10:50;;;;;;;5.55;1.70;;;;;;;;;;5091046;28;20049;-87
2021/03/05 08:13:46;;;;;;;5.68;1.08;;;;;;;;;;5091404;28;20028;-87
2021/03/05 08:16:27;;;;;;;3.10;1.10;;;;;;;;;;5086325;28;20028;-88
2021/03/05 08:19:15;;;;;;;4.28;1.30;;;;;;;;;;5093869;28;20397;-86
2021/03/05 08:21:55;;;;;;;3.38;1.50;;;;;;;;;;5088612;28;20198;-87
2021/03/05 08:24:21;;;;;;;4.85;1.83;;;;;;;;;;5105414;28;20081;-88
2021/03/05 08:27:05;;;;;;;1.38;1.00;;;;;;;;;;5089414;28;20016;-85
2021/03/05 08:29:48;;;;;;;4.90;1.17;;;;;;;;;;5086385;28;20020;-88
2021/03/05 08:32:33;;;;;;;2.33;1.20;;;;;;;;;;5081737;28;20123;-87
2021/03/05 08:35:02;;;;;;;5.38;1.60;;;;;;;;;;5093226;28;20035;-86
2021/03/05 08:37:35;;;;;;;2.28;1.17;;;;;;;;;;5081452;28;20089;-86
2021/03/05 08:40:14;;;;;;;4.22;1.00;;;;;;;;;;5078205;28;20343;-88
2021/03/05 08:42:44;;;;;;;3.88;1.20;;;;;;;;;;5080231;28;20024;-85
2021/03/05 08:45:15;;;;;;;5.22;1.40;;;;;;;;;;5084023;28;20296;-85
2021/03/05 08:47:42;;;;;;;5.65;1.10;;;;;;;;;;5106529;28;20070;-85
2021/03/05 08:50:08;;;;;;;2.78;1.20;;;;;;;;;;5098808;28;20035;-85
2021/03/05 08:52:35;;;;;;;2.90;0.90;;;;;;;;;;5076371;28;20089;-84
2021/03/05 08:55:04;;;;;;;4.85;1.55;;;;;;;;;;5097308;28;20028;-89
2021/03/05 08:57:30;;;;;;;;;;;;;;;;;;5087026;28;20114;-86
2021/03/05 08:59:56;;;;;;;2.75;0.88;;;;;;;;;;5106578;28;19912;-86
2021/03/05 09:02:22;;;;;;;4.55;1.13;;;;;;;;;;5082936;28;20067;-85
2021/03/05 09:04:48;;;;;;;3.35;0.93;;;;;;;;;;5092201;28;20036;-88
2021/03/05 09:07:15;;;;;;;3.03;1.10;;;;;;;;;;5087634;28;20032;-89
2021/03/05 09:09:41;;;;;;;1.92;0.98;;;;;;;;;;5082141;28;20177;-87
2021/03/05 09:12:14;;;;;;;1.73;0.80;;;;;;;;;;5089518;28;20034;-87
2021/03/05 09:14:44;;;;;;;2.80;1.13;;;;;;;;;;5092027;28;20028;-89
2021/03/05 09:17:10;;;;;;;;;;;;;;;;;;5080394;28;20033;-87
2021/03/05 09:19:40;;;;;;;2.58;1.00;;;;;;;;;;5097299;28;19980;-87
2021/03/05 09:22:07;;;;;;;5.97;1.13;;;;;;;;;;5084072;28;20040;-89
2021/03/05 09:24:52;;;;;;;2.58;1.10;;;;;;;;;;5108813;28;20035;-85
2021/03/05 09:27:44;;;;;;;2.67;0.93;;;;;;;;;;5082648;28;20032;-87
2021/03/05 09:30:25;;;;;;;2.55;0.80;;;;;;;;;;5077515;28;20062;-88
2021/03/05 09:32:53;;;;;;;6.80;1.27;;;;;;;;;;5081580;28;20062;-85
2021/03/05 09:35:26;;;;;;;3.08;0.70;;;;;;;;;;5085026;28;20032;-87
2021/03/05 09:37:53;;;;;;;3.47;1.02;;;;;;;;;;5079532;28;20028;-85
2021/03/05 09:40:19;;;;;;;2.10;1.23;;;;;;;;;;5100540;28;20027;-88
2021/03/05 09:42:50;;;;;;;2.08;0.90;;;;;;;;;;5103350;28;20060;-87
2021/03/05 09:45:36;;;;;;;2.30;1.02;;;;;;;;;;5085030;28;20035;-88
2021/03/05 09:48:03;;;;;;;2.65;1.20;;;;;;;;;;5095722;28;20166;-87
2021/03/05 09:50:29;;;;;;;3.20;1.25;;;;;;;;;;5081910;28;20024;-89
2021/03/05 09:52:57;;;;;;;2.85;0.93;;;;;;;;;;5085375;28;20032;-84
2021/03/05 09:55:32;;;;;;;3.22;0.82;;;;;;;;;;5081995;28;20027;-87
2021/03/05 09:58:11;;;;;;;1.48;0.80;;;;;;;;;;5080297;28;20024;-89
2021/03/05 10:00:37;;;;;;;4.25;1.10;;;;;;;;;;5099453;28;20031;-84
2021/03/05 10:03:14;;;;;;;1.70;0.80;;;;;;;;;;5079651;28;20119;-86
2021/03/05 10:05:42;;;;;;;1.65;0.93;;;;;;;;;;5077945;28;20031;-87
2021/03/05 10:08:19;;;;;;;3.60;0.88;;;;;;;;;;5098385;28;20122;-87
2021/03/05 10:10:57;;;;;;;2.42;1.02;;;;;;;;;;5082402;28;20086;-87
2021/03/05 10:13:44;;;;;;;2.30;1.00;;;;;;;;;;5094142;28;20035;-87
2021/03/05 10:16:24;;;;;;;4.03;1.20;;;;;;;;;;5078367;28;20118;-88
2021/03/05 10:18:51;;;;;;;1.67;0.80;;;;;;;;;;5070487;28;20028;-88
2021/03/05 10:21:19;;;;;;;1.98;0.60;;;;;;;;;;5083065;28;20386;-87
2021/03/05 10:23:46;;;;;;;4.80;1.63;;;;;;;;;;5082815;28;20039;-85
2021/03/05 10:26:13;;;;;;;5.20;1.15;;;;;;;;;;5086892;28;20024;-86
2021/03/05 10:28:39;;;;;;;2.15;0.75;;;;;;;;;;5081547;28;20028;-85
2021/03/05 10:31:05;;;;;;;1.65;0.80;;;;;;;;;;5082099;28;20039;-84
2021/03/05 10:33:39;;;;;;;2.28;1.00;;;;;;;;;;5083312;28;20126;-89
2021/03/05 10:36:09;;;;;;;3.42;1.10;;;;;;;;;;5084664;28;20220;-88
2021/03/05 10:38:36;;;;;;;3.28;1.17;;;;;;;;;;5096926;28;20028;-86
2021/03/05 10:41:03;;;;;;;1.90;0.70;;;;;;;;;;5076910;28;20478;-86
2021/03/05 10:43:29;;;;;;;3.95;0.80;;;;;;;;;;5091181;28;20024;-86
2021/03/05 10:45:55;;;;;;;2.92;1.00;;;;;;;;;;5093901;28;20028;-85
2021/03/05 10:48:31;;;;;;;3.28;0.80;;;;;;;;;;5093724;28;20066;-88
2021/03/05 10:50:57;;;;;;;4.22;0.95;;;;;;;;;;5095478;28;20035;-86
2021/03/05 10:53:23;;;;;;;2.42;0.73;;;;;;;;;;5078018;28;20446;-85
2021/03/05 10:55:49;;;;;;;4.38;0.90;;;;;;;;;;5078676;28;20123;-85
2021/03/05 10:58:16;;;;;;;2.65;0.95;;;;;;;;;;5078476;28;20036;-86
2021/03/05 11:00:42;;;;;;;3.80;1.00;;;;;;;;;;5095907;28;20454;-86
2021/03/05 11:03:09;;;;;;;3.60;0.82;;;;;;;;;;5077968;28;20041;-84
2021/03/05 11:05:37;;;;;;;2.70;0.70;;;;;;;;;;5077108;28;20027;-85
2021/03/05 11:08:03;;;;;;;1.87;0.70;;;;;;;;;;5098700;28;20188;-85
2021/03/05 11:10:29;;;;;;;9.07;0.80;;;;;;;;;;5079782;28;20355;-86
2021/03/05 11:12:56;;;;;;;2.15;0.75;;;;;;;;;;5077766;28;20024;-86
2021/03/05 11:15:24;;;;;;;1.67;0.80;;;;;;;;;;5078217;28;20078;-84
2021/03/05 11:17:50;;;;;;;1.20;0.82;;;;;;;;;;5076837;28;20028;-88
2021/03/05 11:20:16;;;;;;;5.18;1.10;;;;;;;;;;5091744;28;20024;-85
2021/03/05 11:22:42;;;;;;;2.33;0.80;;;;;;;;;;5091240;28;20081;-85
2021/03/05 11:25:09;;;;;;;2.83;0.60;;;;;;;;;;5070444;28;20501;-85
2021/03/05 11:27:35;;;;;;;1.75;0.80;;;;;;;;;;5077169;28;20088;-86
2021/03/05 11:30:19;;;;;;;3.78;0.85;;;;;;;;;;5097228;28;20187;-87
2021/03/05 11:32:47;;;;;;;0.70;0.70;;;;;;;;;;5075640;28;20040;-87
2021/03/05 11:35:14;;;;;;;2.42;0.70;;;;;;;;;;5069199;28;20266;-86
2021/03/05 11:37:40;;;;;;;2.15;0.80;;;;;;;;;;5080494;28;20023;-88
2021/03/05 11:40:07;;;;;;;1.65;0.70;;;;;;;;;;5076118;28;20078;-87
2021/03/05 11:42:33;;;;;;;1.77;0.70;;;;;;;;;;5094421;28;20123;-87
2021/03/05 11:45:04;;;;;;;2.55;0.93;;;;;;;;;;5107425;28;20427;-88
2021/03/05 11:47:30;;;;;;;2.80;0.90;;;;;;;;;;5083053;28;20055;-87
2021/03/05 11:49:56;;;;;;;2.45;0.93;;;;;;;;;;5104168;28;20188;-86
2021/03/05 11:52:23;;;;;;;5.05;1.40;;;;;;;;;;5105648;28;20041;-89
2021/03/05 11:54:49;;;;;;;2.25;0.80;;;;;;;;;;5081694;28;20040;-88
2021/03/05 11:57:15;;;;;;;2.28;1.02;;;;;;;;;;5083607;28;20078;-86
2021/03/05 11:59:44;;;;;;;2.67;0.90;;;;;;;;;;5081851;28;20032;-86
2021/03/05 12:02:10;;;;;;;1.67;0.98;;;;;;;;;;5080365;28;20123;-85
2021/03/05 12:04:36;;;;;;;2.00;1.10;;;;;;;;;;5079289;28;20059;-87
2021/03/05 12:07:03;;;;;;;3.25;1.42;;;;;;;;;;5079538;28;20055;-86
2021/03/05 12:09:29;;;;;;;1.42;0.70;;;;;;;;;;5083852;28;20046;-88
2021/03/05 12:11:55;;;;;;;1.42;0.70;;;;;;;;;;5108980;28;20126;-88
2021/03/05 12:14:21;;;;;;;1.88;1.23;;;;;;;;;;5098025;28;20019;-87
2021/03/05 12:16:47;;;;;;;2.33;1.10;;;;;;;;;;5099058;28;20071;-86
2021/03/05 12:19:14;;;;;;;2.50;0.70;;;;;;;;;;5077585;28;20123;-87
2021/03/05 12:21:40;;;;;;;1.85;1.05;;;;;;;;;;5095713;28;20027;-88
2021/03/05 12:24:06;;;;;;;4.07;1.10;;;;;;;;;;5078573;28;20032;-87
2021/03/05 12:26:32;;;;;;;1.92;0.75;;;;;;;;;;5082116;28;20074;-87
2021/03/05 12:28:58;;;;;;;3.45;0.98;;;;;;;;;;5096795;28;20122;-85
2021/03/05 12:31:24;;;;;;;2.85;1.38;;;;;;;;;;5079731;28;20439;-89
2021/03/05 12:33:51;;;;;;;1.10;0.70;;;;;;;;;;5090001;28;20035;-89
2021/03/05 12:36:17;;;;;;;1.50;0.82;;;;;;;;;;5077880;28;20069;-86
2021/03/05 12:38:44;;;;;;;2.38;1.00;;;;;;;;;;5098950;28;20044;-85
2021/03/05 12:41:10;;;;;;;3.45;0.93;;;;;;;;;;5081456;28;20069;-86
2021/03/05 12:43:36;;;;;;;1.77;1.00;;;;;;;;;;5092433;28;20063;-87
2021/03/05 12:46:20;;;;;;;3.10;1.13;;;;;;;;;;5083401;28;20032;-87
2021/03/05 12:52:28;;;;;;;3.95;1.05;;;;;;;;;;5074473;28;20083;-88
2021/03/05 12:54:55;;;;;;;2.35;1.00;;;;;;;;;;5057928;28;20040;-87
2021/03/05 12:57:21;;;;;;;2.92;0.85;;;;;;;;;;5040823;28;20029;-88
2021/03/05 12:59:47;;;;;;;2.90;0.82;;;;;;;;;;5056962;28;20043;-86
2021/03/05 13:02:13;;;;;;;0.85;0.60;;;;;;;;;;5085607;28;20038;-87
2021/03/05 13:04:40;;;;;;;1.30;0.68;;;;;;;;;;5077920;28;20024;-87
2021/03/05 13:07:06;;;;;;;1.30;0.90;;;;;;;;;;5099209;28;20130;-85
2021/03/05 13:09:32;;;;;;;1.60;0.55;;;;;;;;;;5081340;28;20055;-89
2021/03/05 13:12:01;;;;;;;2.17;1.00;;;;;;;;;;5089715;28;20110;-87
2021/03/05 13:14:27;;;;;;;1.25;0.82;;;;;;;;;;5106109;28;20032;-88
2021/03/05 13:16:53;;;;;;;1.95;0.60;;;;;;;;;;5093780;28;20032;-85
2021/03/05 13:19:20;;;;;;;0.60;0.60;;;;;;;;;;5080328;28;20030;-89
2021/03/05 13:22:06;;;;;;;9.13;1.35;;;;;;;;;;5075298;28;20028;-85
2021/03/05 13:24:33;;;;;;;3.60;1.00;;;;;;;;;;5075355;28;20140;-87
2021/03/05 13:26:59;;;;;;;2.40;0.95;;;;;;;;;;5077978;28;20042;-85
2021/03/05 13:29:25;;;;;;;0.98;0.70;;;;;;;;;;5084556;28;20032;-87
2021/03/05 13:31:51;;;;;;;3.33;0.75;;;;;;;;;;5099219;28;20043;-87
2021/03/05 13:34:18;;;;;;;2.30;0.82;;;;;;;;;;5085530;28;20040;-87
2021/03/05 13:36:49;;;;;;;5.53;0.77;;;;;;;;;;5087967;28;20056;-86
2021/03/05 13:39:16;;;;;;;1.20;0.70;;;;;;;;;;5097874;28;20024;-86
2021/03/05 13:41:42;;;;;;;2.83;1.10;;;;;;;;;;5095567;28;20032;-87
2021/03/05 13:44:08;;;;;;;0.70;0.60;;;;;;;;;;5073497;28;20029;-87
2021/03/05 13:46:35;;;;;;;1.55;0.57;;;;;;;;;;5075037;28;20470;-87
2021/03/05 13:49:01;;;;;;;1.33;0.73;;;;;;;;;;5081498;28;20051;-88
2021/03/05 13:51:27;;;;;;;1.98;0.95;;;;;;;;;;5080024;28;20056;-88
2021/03/05 13:53:54;;;;;;;2.47;0.95;;;;;;;;;;5076177;28;20510;-90
2021/03/05 13:56:20;;;;;;;2.15;0.93;;;;;;;;;;5078424;28;20377;-88
2021/03/05 13:58:46;;;;;;;1.25;0.88;;;;;;;;;;5114567;27;19996;-85
2021/03/05 14:01:12;;;;;;;1.55;0.90;;;;;;;;;;5101901;28;20043;-87
2021/03/05 14:03:38;;;;;;;0.93;0.75;;;;;;;;;;5098287;28;20075;-88
2021/03/05 14:06:05;;;;;;;0.93;0.70;;;;;;;;;;5114728;28;20027;-89
2021/03/05 14:08:31;;;;;;;1.10;0.70;;;;;;;;;;5095262;28;20020;-86
2021/03/05 14:11:00;;;;;;;2.80;1.30;;;;;;;;;;5096581;28;20039;-85
2021/03/05 14:13:27;;;;;;;1.65;0.75;;;;;;;;;;5097009;28;20023;-85
2021/03/05 14:15:54;;;;;;;1.67;0.82;;;;;;;;;;5096972;28;20121;-90
2021/03/05 14:18:20;;;;;;;2.30;0.75;;;;;;;;;;5097952;28;20015;-88
2021/03/05 14:20:46;;;;;;;1.15;0.70;;;;;;;;;;5115812;28;20023;-88
2021/03/05 14:23:15;;;;;;;2.00;0.85;;;;;;;;;;5115144;28;20067;-87
2021/03/05 14:25:41;;;;;;;1.75;0.70;;;;;;;;;;5110006;28;20200;-87
2021/03/05 14:28:08;;;;;;;3.72;0.90;;;;;;;;;;5106799;28;20146;-87
2021/03/05 14:30:34;;;;;;;1.70;0.80;;;;;;;;;;5093245;28;20020;-85
2021/03/05 14:33:01;;;;;;;1.50;0.88;;;;;;;;;;5094179;28;20047;-89
2021/03/05 14:35:27;;;;;;;2.25;0.60;;;;;;;;;;5095149;28;20101;-86
2021/03/05 14:37:53;;;;;;;1.77;0.50;;;;;;;;;;5094023;28;20032;-86
2021/03/05 14:40:20;;;;;;;1.23;0.52;;;;;;;;;;5109069;28;20027;-88
2021/03/05 14:42:46;;;;;;;1.48;0.80;;;;;;;;;;5109074;28;20359;-90
2021/03/05 14:45:14;;;;;;;0.88;0.68;;;;;;;;;;5109185;28;20023;-87
2021/03/05 14:47:41;;;;;;;4.70;0.88;;;;;;;;;;5082435;28;20036;-87
2021/03/05 14:50:07;;;;;;;2.15;0.70;;;;;;;;;;5103224;28;20039;-88
2021/03/05 14:52:33;;;;;;;3.40;0.80;;;;;;;;;;5079777;28;20313;-86